sensor_id;sensor_type;location;lat;lon;timestamp;pressure;altitude;pressure_sealevel;temperature;humidity
74268;BME280;62638;51.362;12.472;2022-09-17T00:01:32;99259.22;;;10.67;76.26
74268;BME280;62638;51.362;12.472;2022-09-17T00:03:58;99266.41;;;10.66;76.42
74268;BME280;62638;51.362;12.472;2022-09-17T00:06:28;99267.09;;;10.68;76.56
74268;BME280;62638;51.362;12.472;2022-09-17T00:08:53;99264.75;;;10.65;76.87
74268;BME280;62638;51.362;12.472;2022-09-17T00:11:25;99270.63;;;10.61;77.42
74268;BME280;62638;51.362;12.472;2022-09-17T00:13:51;99270.78;;;10.67;76.39
74268;BME280;62638;51.362;12.472;2022-09-17T00:16:29;99265.56;;;10.66;76.82
74268;BME280;62638;51.362;12.472;2022-09-17T00:18:56;99271.44;;;10.77;76.63
74268;BME280;62638;51.362;12.472;2022-09-17T00:21:21;99273.28;;;10.85;76.48
74268;BME280;62638;51.362;12.472;2022-09-17T00:23:47;99271.41;;;10.93;75.87
74268;BME280;62638;51.362;12.472;2022-09-17T00:26:13;99274.78;;;10.96;75.92
74268;BME280;62638;51.362;12.472;2022-09-17T00:28:38;99269.91;;;10.99;75.76
74268;BME280;62638;51.362;12.472;2022-09-17T00:31:07;99273.75;;;10.97;76.35
74268;BME280;62638;51.362;12.472;2022-09-17T00:33:33;99268.56;;;10.95;76.45
74268;BME280;62638;51.362;12.472;2022-09-17T00:36:00;99277.25;;;10.97;76.03
74268;BME280;62638;51.362;12.472;2022-09-17T00:38:26;99276.41;;;10.97;76.33
74268;BME280;62638;51.362;12.472;2022-09-17T00:40:52;99263.88;;;10.97;76.51
74268;BME280;62638;51.362;12.472;2022-09-17T00:43:42;99279.44;;;11.02;75.99
74268;BME280;62638;51.362;12.472;2022-09-17T00:46:18;99277.91;;;11.07;76.22
74268;BME280;62638;51.362;12.472;2022-09-17T00:48:45;99280.94;;;11.04;76.04
74268;BME280;62638;51.362;12.472;2022-09-17T00:51:14;99282.44;;;11.07;75.93
74268;BME280;62638;51.362;12.472;2022-09-17T00:53:42;99278.75;;;11.08;76.28
74268;BME280;62638;51.362;12.472;2022-09-17T00:56:29;99288.13;;;11.12;76.53
74268;BME280;62638;51.362;12.472;2022-09-17T00:58:55;99288.47;;;11.17;76.16
74268;BME280;62638;51.362;12.472;2022-09-17T01:01:22;99290.31;;;11.16;76.18
74268;BME280;62638;51.362;12.472;2022-09-17T01:03:47;99289.59;;;11.22;76.14
74268;BME280;62638;51.362;12.472;2022-09-17T01:06:16;99284.22;;;11.30;75.64
74268;BME280;62638;51.362;12.472;2022-09-17T01:11:52;99287.72;;;11.31;76.08
74268;BME280;62638;51.362;12.472;2022-09-17T01:17:27;99292.75;;;11.34;75.86
74268;BME280;62638;51.362;12.472;2022-09-17T01:20:08;99287.22;;;11.35;75.69
74268;BME280;62638;51.362;12.472;2022-09-17T01:25:50;99290.72;;;11.36;76.46
74268;BME280;62638;51.362;12.472;2022-09-17T01:28:25;99286.69;;;11.40;75.77
74268;BME280;62638;51.362;12.472;2022-09-17T01:39:55;99299.22;;;11.48;76.62
74268;BME280;62638;51.362;12.472;2022-09-17T01:42:31;99298.41;;;11.47;76.73
74268;BME280;62638;51.362;12.472;2022-09-17T01:47:57;99299.06;;;11.49;76.77
74268;BME280;62638;51.362;12.472;2022-09-17T01:50:29;99300.06;;;11.48;77.52
74268;BME280;62638;51.362;12.472;2022-09-17T01:52:55;99308.63;;;11.52;76.59
74268;BME280;62638;51.362;12.472;2022-09-17T01:55:25;99308.44;;;11.53;77.09
74268;BME280;62638;51.362;12.472;2022-09-17T01:58:04;99310.13;;;11.54;76.89
74268;BME280;62638;51.362;12.472;2022-09-17T02:00:31;99311.13;;;11.53;76.98
74268;BME280;62638;51.362;12.472;2022-09-17T02:03:03;99306.59;;;11.54;77.14
74268;BME280;62638;51.362;12.472;2022-09-17T02:05:39;99301.91;;;11.48;77.36
74268;BME280;62638;51.362;12.472;2022-09-17T02:08:12;99309.78;;;11.49;77.61
74268;BME280;62638;51.362;12.472;2022-09-17T02:10:43;99304.78;;;11.46;77.92
74268;BME280;62638;51.362;12.472;2022-09-17T02:13:14;99298.72;;;11.52;77.55
74268;BME280;62638;51.362;12.472;2022-09-17T02:15:52;99309.44;;;11.52;77.25
74268;BME280;62638;51.362;12.472;2022-09-17T02:18:33;99316.47;;;11.53;77.72
74268;BME280;62638;51.362;12.472;2022-09-17T02:21:07;99317.19;;;11.47;77.80
74268;BME280;62638;51.362;12.472;2022-09-17T02:23:36;99308.31;;;11.47;78.21
74268;BME280;62638;51.362;12.472;2022-09-17T02:26:11;99312.16;;;11.44;78.43
74268;BME280;62638;51.362;12.472;2022-09-17T02:28:46;99321.56;;;11.40;78.76
74268;BME280;62638;51.362;12.472;2022-09-17T02:31:12;99320.06;;;11.37;79.49
74268;BME280;62638;51.362;12.472;2022-09-17T02:33:40;99318.06;;;11.31;79.88
74268;BME280;62638;51.362;12.472;2022-09-17T02:36:06;99318.25;;;11.22;80.88
74268;BME280;62638;51.362;12.472;2022-09-17T02:38:33;99317.94;;;11.17;81.79
74268;BME280;62638;51.362;12.472;2022-09-17T02:41:10;99320.94;;;11.14;81.70
74268;BME280;62638;51.362;12.472;2022-09-17T02:43:52;99307.88;;;11.11;81.75
74268;BME280;62638;51.362;12.472;2022-09-17T02:46:37;99308.56;;;11.13;81.72
74268;BME280;62638;51.362;12.472;2022-09-17T02:52:10;99310.56;;;11.11;81.40
74268;BME280;62638;51.362;12.472;2022-09-17T02:57:46;99301.19;;;11.07;81.98
74268;BME280;62638;51.362;12.472;2022-09-17T03:00:20;99315.97;;;10.95;83.31
74268;BME280;62638;51.362;12.472;2022-09-17T03:05:24;99292.38;;;10.74;84.97
74268;BME280;62638;51.362;12.472;2022-09-17T03:07:50;99297.56;;;10.67;85.96
74268;BME280;62638;51.362;12.472;2022-09-17T03:10:16;99290.88;;;10.63;86.08
74268;BME280;62638;51.362;12.472;2022-09-17T03:12:42;99291.84;;;10.62;86.23
74268;BME280;62638;51.362;12.472;2022-09-17T03:15:07;99289.88;;;10.56;87.28
74268;BME280;62638;51.362;12.472;2022-09-17T03:17:33;99291.38;;;10.59;86.85
74268;BME280;62638;51.362;12.472;2022-09-17T03:19:58;99296.72;;;10.51;87.54
74268;BME280;62638;51.362;12.472;2022-09-17T03:22:24;99289.84;;;10.40;88.74
74268;BME280;62638;51.362;12.472;2022-09-17T03:24:49;99287.50;;;10.29;90.28
74268;BME280;62638;51.362;12.472;2022-09-17T03:27:14;99288.16;;;10.23;91.23
74268;BME280;62638;51.362;12.472;2022-09-17T03:29:40;99285.16;;;10.18;91.90
74268;BME280;62638;51.362;12.472;2022-09-17T03:32:05;99282.78;;;10.23;91.25
74268;BME280;62638;51.362;12.472;2022-09-17T03:34:31;99291.16;;;10.20;91.96
74268;BME280;62638;51.362;12.472;2022-09-17T03:36:56;99291.16;;;10.20;92.56
74268;BME280;62638;51.362;12.472;2022-09-17T03:39:21;99287.16;;;10.16;92.95
74268;BME280;62638;51.362;12.472;2022-09-17T03:41:47;99276.75;;;10.13;93.46
74268;BME280;62638;51.362;12.472;2022-09-17T03:44:12;99278.59;;;10.12;93.97
74268;BME280;62638;51.362;12.472;2022-09-17T03:46:38;99273.38;;;10.11;94.72
74268;BME280;62638;51.362;12.472;2022-09-17T03:49:03;99262.88;;;10.09;95.07
74268;BME280;62638;51.362;12.472;2022-09-17T03:51:29;99272.72;;;10.00;95.49
74268;BME280;62638;51.362;12.472;2022-09-17T03:53:54;99263.34;;;9.96;96.12
74268;BME280;62638;51.362;12.472;2022-09-17T03:56:19;99260.00;;;9.94;96.45
74268;BME280;62638;51.362;12.472;2022-09-17T03:58:44;99266.03;;;9.96;96.68
74268;BME280;62638;51.362;12.472;2022-09-17T04:01:10;99264.00;;;9.98;96.36
74268;BME280;62638;51.362;12.472;2022-09-17T04:03:35;99271.03;;;9.99;96.28
74268;BME280;62638;51.362;12.472;2022-09-17T04:06:00;99269.88;;;10.02;96.65
74268;BME280;62638;51.362;12.472;2022-09-17T04:08:26;99274.38;;;10.01;96.25
74268;BME280;62638;51.362;12.472;2022-09-17T04:10:51;99270.34;;;9.97;96.70
74268;BME280;62638;51.362;12.472;2022-09-17T04:13:17;99274.34;;;9.93;97.84
74268;BME280;62638;51.362;12.472;2022-09-17T04:15:43;99276.03;;;9.86;97.95
74268;BME280;62638;51.362;12.472;2022-09-17T04:18:09;99271.34;;;9.88;98.62
74268;BME280;62638;51.362;12.472;2022-09-17T04:20:34;99264.00;;;9.90;98.80
74268;BME280;62638;51.362;12.472;2022-09-17T04:23:00;99272.69;;;9.92;98.47
74268;BME280;62638;51.362;12.472;2022-09-17T04:25:25;99262.66;;;9.94;98.54
74268;BME280;62638;51.362;12.472;2022-09-17T04:27:50;99273.53;;;9.93;99.01
74268;BME280;62638;51.362;12.472;2022-09-17T04:30:16;99286.22;;;9.91;98.88
74268;BME280;62638;51.362;12.472;2022-09-17T04:32:45;99274.34;;;9.93;98.65
74268;BME280;62638;51.362;12.472;2022-09-17T04:35:11;99273.03;;;9.97;98.99
74268;BME280;62638;51.362;12.472;2022-09-17T04:37:37;99273.03;;;9.97;98.81
74268;BME280;62638;51.362;12.472;2022-09-17T04:40:03;99284.41;;;9.99;98.88
74268;BME280;62638;51.362;12.472;2022-09-17T04:42:29;99283.72;;;9.97;99.10
74268;BME280;62638;51.362;12.472;2022-09-17T04:44:54;99286.59;;;9.96;99.22
74268;BME280;62638;51.362;12.472;2022-09-17T04:47:19;99281.38;;;9.94;99.79
74268;BME280;62638;51.362;12.472;2022-09-17T04:49:44;99289.91;;;9.90;100.00
74268;BME280;62638;51.362;12.472;2022-09-17T04:52:10;99288.72;;;9.92;100.00
74268;BME280;62638;51.362;12.472;2022-09-17T04:54:35;99280.69;;;9.92;100.00
74268;BME280;62638;51.362;12.472;2022-09-17T04:57:00;99294.75;;;9.94;100.00
74268;BME280;62638;51.362;12.472;2022-09-17T04:59:25;99285.75;;;9.95;100.00
74268;BME280;62638;51.362;12.472;2022-09-17T05:01:51;99288.09;;;9.98;100.00
74268;BME280;62638;51.362;12.472;2022-09-17T05:04:16;99282.59;;;10.00;100.00
74268;BME280;62638;51.362;12.472;2022-09-17T05:06:41;99297.47;;;10.02;100.00
74268;BME280;62638;51.362;12.472;2022-09-17T05:09:07;99289.44;;;10.02;100.00
74268;BME280;62638;51.362;12.472;2022-09-17T05:11:32;99299.78;;;10.06;100.00
74268;BME280;62638;51.362;12.472;2022-09-17T05:13:58;99298.81;;;10.07;100.00
74268;BME280;62638;51.362;12.472;2022-09-17T05:16:23;99294.28;;;10.07;100.00
74268;BME280;62638;51.362;12.472;2022-09-17T05:18:48;99303.66;;;10.11;100.00
74268;BME280;62638;51.362;12.472;2022-09-17T05:21:16;99301.50;;;10.15;100.00
74268;BME280;62638;51.362;12.472;2022-09-17T05:23:41;99306.38;;;10.19;100.00
74268;BME280;62638;51.362;12.472;2022-09-17T05:26:06;99302.56;;;10.22;100.00
74268;BME280;62638;51.362;12.472;2022-09-17T05:28:32;99305.53;;;10.27;100.00
74268;BME280;62638;51.362;12.472;2022-09-17T05:30:58;99308.06;;;10.28;99.95
74268;BME280;62638;51.362;12.472;2022-09-17T05:33:24;99311.94;;;10.34;99.56
74268;BME280;62638;51.362;12.472;2022-09-17T05:35:49;99311.94;;;10.34;99.23
74268;BME280;62638;51.362;12.472;2022-09-17T05:38:14;99315.25;;;10.36;99.50
74268;BME280;62638;51.362;12.472;2022-09-17T05:40:39;99317.44;;;10.40;98.83
74268;BME280;62638;51.362;12.472;2022-09-17T05:43:06;99321.31;;;10.46;97.95
74268;BME280;62638;51.362;12.472;2022-09-17T05:45:33;99324.34;;;10.51;98.13
74268;BME280;62638;51.362;12.472;2022-09-17T05:48:00;99326.50;;;10.56;97.91
74268;BME280;62638;51.362;12.472;2022-09-17T05:50:26;99333.34;;;10.58;98.07
74268;BME280;62638;51.362;12.472;2022-09-17T05:52:53;99337.38;;;10.62;97.61
74268;BME280;62638;51.362;12.472;2022-09-17T05:55:19;99339.75;;;10.65;97.31
74268;BME280;62638;51.362;12.472;2022-09-17T05:57:46;99343.75;;;10.69;97.31
74268;BME280;62638;51.362;12.472;2022-09-17T06:00:12;99345.09;;;10.73;97.18
74268;BME280;62638;51.362;12.472;2022-09-17T06:02:37;99334.53;;;10.80;96.31
74268;BME280;62638;51.362;12.472;2022-09-17T06:05:04;99346.59;;;10.92;95.95
74268;BME280;62638;51.362;12.472;2022-09-17T06:07:30;99343.59;;;10.95;94.82
74268;BME280;62638;51.362;12.472;2022-09-17T06:09:55;99348.25;;;11.01;94.59
74268;BME280;62638;51.362;12.472;2022-09-17T06:12:21;99349.59;;;11.05;95.06
74268;BME280;62638;51.362;12.472;2022-09-17T06:14:46;99356.13;;;11.11;94.16
74268;BME280;62638;51.362;12.472;2022-09-17T06:17:11;99356.28;;;11.25;93.95
74268;BME280;62638;51.362;12.472;2022-09-17T06:19:37;99352.56;;;11.26;93.32
74268;BME280;62638;51.362;12.472;2022-09-17T06:22:02;99369.81;;;11.32;92.92
74268;BME280;62638;51.362;12.472;2022-09-17T06:24:29;99367.84;;;11.34;91.93
74268;BME280;62638;51.362;12.472;2022-09-17T06:26:54;99363.13;;;11.36;91.56
74268;BME280;62638;51.362;12.472;2022-09-17T06:29:19;99358.75;;;11.35;91.77
74268;BME280;62638;51.362;12.472;2022-09-17T06:31:47;99363.81;;;11.30;91.71
74268;BME280;62638;51.362;12.472;2022-09-17T06:34:12;99367.00;;;11.33;90.85
74268;BME280;62638;51.362;12.472;2022-09-17T06:36:38;99373.84;;;11.36;91.03
74268;BME280;62638;51.362;12.472;2022-09-17T06:39:03;99376.53;;;11.36;90.39
74268;BME280;62638;51.362;12.472;2022-09-17T06:41:28;99378.03;;;11.30;90.21
74268;BME280;62638;51.362;12.472;2022-09-17T06:43:54;99372.66;;;11.30;89.89
74268;BME280;62638;51.362;12.472;2022-09-17T06:46:19;99383.72;;;11.52;88.00
74268;BME280;62638;51.362;12.472;2022-09-17T06:48:45;99381.63;;;11.70;87.83
74268;BME280;62638;51.362;12.472;2022-09-17T06:51:10;99377.31;;;11.77;87.69
74268;BME280;62638;51.362;12.472;2022-09-17T06:53:36;99387.50;;;11.81;87.54
74268;BME280;62638;51.362;12.472;2022-09-17T06:56:03;99389.84;;;11.85;87.08
74268;BME280;62638;51.362;12.472;2022-09-17T06:58:31;99392.00;;;11.89;86.63
74268;BME280;62638;51.362;12.472;2022-09-17T07:01:00;99382.09;;;11.98;86.75
74268;BME280;62638;51.362;12.472;2022-09-17T07:03:27;99392.06;;;12.20;84.99
74268;BME280;62638;51.362;12.472;2022-09-17T07:05:53;99380.50;;;12.11;84.63
74268;BME280;62638;51.362;12.472;2022-09-17T07:08:18;99393.97;;;12.03;83.70
74268;BME280;62638;51.362;12.472;2022-09-17T07:10:43;99388.22;;;12.14;83.50
74268;BME280;62638;51.362;12.472;2022-09-17T07:13:09;99397.16;;;12.07;83.35
74268;BME280;62638;51.362;12.472;2022-09-17T07:15:34;99390.38;;;12.19;83.34
74268;BME280;62638;51.362;12.472;2022-09-17T07:18:06;99393.00;;;12.27;82.18
74268;BME280;62638;51.362;12.472;2022-09-17T07:20:32;99391.16;;;12.58;82.06
74268;BME280;62638;51.362;12.472;2022-09-17T07:22:57;99385.16;;;12.48;81.52
74268;BME280;62638;51.362;12.472;2022-09-17T07:25:23;99398.34;;;12.35;81.09
74268;BME280;62638;51.362;12.472;2022-09-17T07:27:50;99388.13;;;12.31;81.66
74268;BME280;62638;51.362;12.472;2022-09-17T07:30:15;99397.28;;;12.44;80.45
74268;BME280;62638;51.362;12.472;2022-09-17T07:32:41;99388.72;;;12.71;79.76
74268;BME280;62638;51.362;12.472;2022-09-17T07:35:06;99390.44;;;12.87;78.41
74268;BME280;62638;51.362;12.472;2022-09-17T07:37:32;99388.63;;;13.25;76.11
74268;BME280;62638;51.362;12.472;2022-09-17T07:39:57;99395.19;;;13.45;75.96
74268;BME280;62638;51.362;12.472;2022-09-17T07:42:22;99381.22;;;13.27;74.28
74268;BME280;62638;51.362;12.472;2022-09-17T07:44:48;99397.00;;;13.30;75.22
74268;BME280;62638;51.362;12.472;2022-09-17T07:47:13;99397.16;;;13.14;77.11
74268;BME280;62638;51.362;12.472;2022-09-17T07:49:38;99394.13;;;13.09;75.98
74268;BME280;62638;51.362;12.472;2022-09-17T07:52:03;99419.06;;;13.03;75.19
74268;BME280;62638;51.362;12.472;2022-09-17T07:54:31;99417.69;;;13.07;74.90
74268;BME280;62638;51.362;12.472;2022-09-17T07:56:57;99419.59;;;13.21;73.14
74268;BME280;62638;51.362;12.472;2022-09-17T07:59:22;99421.84;;;13.70;71.01
74268;BME280;62638;51.362;12.472;2022-09-17T08:01:48;99425.94;;;13.95;70.12
74268;BME280;62638;51.362;12.472;2022-09-17T08:04:13;99430.94;;;14.13;71.53
74268;BME280;62638;51.362;12.472;2022-09-17T08:06:39;99431.81;;;13.46;69.31
74268;BME280;62638;51.362;12.472;2022-09-17T08:09:05;99436.28;;;13.69;67.99
74268;BME280;62638;51.362;12.472;2022-09-17T08:11:32;99427.19;;;13.17;69.10
74268;BME280;62638;51.362;12.472;2022-09-17T08:13:57;99425.38;;;13.10;71.17
74268;BME280;62638;51.362;12.472;2022-09-17T08:16:23;99416.25;;;13.56;69.55
74268;BME280;62638;51.362;12.472;2022-09-17T08:18:53;99425.41;;;13.47;69.45
74268;BME280;62638;51.362;12.472;2022-09-17T08:21:19;99436.63;;;13.36;69.06
74268;BME280;62638;51.362;12.472;2022-09-17T08:23:45;99429.31;;;13.45;69.47
74268;BME280;62638;51.362;12.472;2022-09-17T08:26:12;99441.19;;;13.13;69.15
74268;BME280;62638;51.362;12.472;2022-09-17T08:28:37;99442.41;;;13.25;68.47
74268;BME280;62638;51.362;12.472;2022-09-17T08:31:06;99441.69;;;13.31;70.01
74268;BME280;62638;51.362;12.472;2022-09-17T08:33:33;99439.47;;;13.35;68.27
74268;BME280;62638;51.362;12.472;2022-09-17T08:35:59;99449.91;;;13.15;68.92
74268;BME280;62638;51.362;12.472;2022-09-17T08:38:26;99442.22;;;13.04;68.35
74268;BME280;62638;51.362;12.472;2022-09-17T08:41:05;99464.53;;;12.59;73.44
74268;BME280;62638;51.362;12.472;2022-09-17T08:46:47;99459.81;;;12.22;74.88
74268;BME280;62638;51.362;12.472;2022-09-17T08:49:34;99459.41;;;12.41;73.57
74268;BME280;62638;51.362;12.472;2022-09-17T08:54:35;99471.16;;;12.71;72.11
74268;BME280;62638;51.362;12.472;2022-09-17T09:00:12;99480.50;;;13.14;70.07
74268;BME280;62638;51.362;12.472;2022-09-17T09:03:01;99490.56;;;13.20;69.40
74268;BME280;62638;51.362;12.472;2022-09-17T09:05:46;99478.66;;;13.14;67.68
74268;BME280;62638;51.362;12.472;2022-09-17T09:10:48;99491.78;;;13.32;67.19
74268;BME280;62638;51.362;12.472;2022-09-17T09:13:16;99482.69;;;13.33;68.82
74268;BME280;62638;51.362;12.472;2022-09-17T09:15:52;99486.66;;;13.60;67.20
74268;BME280;62638;51.362;12.472;2022-09-17T09:18:21;99495.06;;;13.80;68.43
74268;BME280;62638;51.362;12.472;2022-09-17T09:21:25;99487.56;;;13.75;69.08
74268;BME280;62638;51.362;12.472;2022-09-17T09:24:00;99488.53;;;13.59;68.51
74268;BME280;62638;51.362;12.472;2022-09-17T09:26:48;99505.75;;;13.50;69.02
74268;BME280;62638;51.362;12.472;2022-09-17T09:29:34;99504.25;;;13.48;69.06
74268;BME280;62638;51.362;12.472;2022-09-17T09:32:39;99509.59;;;13.33;69.22
74268;BME280;62638;51.362;12.472;2022-09-17T09:37:49;99509.41;;;13.72;68.32
74268;BME280;62638;51.362;12.472;2022-09-17T09:40:26;99492.97;;;14.19;66.84
74268;BME280;62638;51.362;12.472;2022-09-17T09:42:54;99505.16;;;14.44;65.05
74268;BME280;62638;51.362;12.472;2022-09-17T09:45:38;99494.47;;;14.66;63.30
74268;BME280;62638;51.362;12.472;2022-09-17T09:48:32;99501.97;;;14.26;66.46
74268;BME280;62638;51.362;12.472;2022-09-17T09:51:17;99503.25;;;13.86;69.61
74268;BME280;62638;51.362;12.472;2022-09-17T09:54:12;99512.03;;;13.43;70.03
74268;BME280;62638;51.362;12.472;2022-09-17T09:56:55;99517.03;;;13.69;70.13
74268;BME280;62638;51.362;12.472;2022-09-17T09:59:21;99516.63;;;13.94;66.22
74268;BME280;62638;51.362;12.472;2022-09-17T10:01:47;99517.38;;;14.03;66.31
74268;BME280;62638;51.362;12.472;2022-09-17T10:04:30;99503.78;;;14.48;63.84
74268;BME280;62638;51.362;12.472;2022-09-17T10:07:07;99509.06;;;14.27;62.87
74268;BME280;62638;51.362;12.472;2022-09-17T10:09:33;99506.38;;;14.57;62.60
74268;BME280;62638;51.362;12.472;2022-09-17T10:14:38;99498.34;;;14.78;61.46
74268;BME280;62638;51.362;12.472;2022-09-17T10:17:24;99496.94;;;14.82;58.38
74268;BME280;62638;51.362;12.472;2022-09-17T10:22:31;99503.56;;;14.79;57.53
74268;BME280;62638;51.362;12.472;2022-09-17T10:24:59;99503.22;;;15.46;55.57
74268;BME280;62638;51.362;12.472;2022-09-17T10:27:25;99497.94;;;14.81;58.01
74268;BME280;62638;51.362;12.472;2022-09-17T10:32:34;99497.94;;;15.17;57.84
74268;BME280;62638;51.362;12.472;2022-09-17T10:35:02;99497.56;;;15.20;57.96
74268;BME280;62638;51.362;12.472;2022-09-17T10:37:32;99502.22;;;14.90;58.46
74268;BME280;62638;51.362;12.472;2022-09-17T10:39:58;99488.34;;;14.42;58.94
74268;BME280;62638;51.362;12.472;2022-09-17T10:42:23;99488.97;;;14.59;59.02
74268;BME280;62638;51.362;12.472;2022-09-17T10:44:56;99476.44;;;14.51;58.65
74268;BME280;62638;51.362;12.472;2022-09-17T10:47:25;99477.09;;;14.89;57.22
74268;BME280;62638;51.362;12.472;2022-09-17T10:49:56;99479.00;;;15.74;55.45
74268;BME280;62638;51.362;12.472;2022-09-17T10:52:47;99472.78;;;15.80;54.00
74268;BME280;62638;51.362;12.472;2022-09-17T10:55:31;99474.94;;;15.21;55.11
74268;BME280;62638;51.362;12.472;2022-09-17T11:00:44;99472.13;;;15.50;54.03
74268;BME280;62638;51.362;12.472;2022-09-17T11:08:48;99482.72;;;15.30;53.37
74268;BME280;62638;51.362;12.472;2022-09-17T11:14:19;99476.16;;;14.61;55.24
74268;BME280;62638;51.362;12.472;2022-09-17T11:20:41;99481.06;;;14.28;57.40
74268;BME280;62638;51.362;12.472;2022-09-17T11:26:02;99482.94;;;14.13;58.15
74268;BME280;62638;51.362;12.472;2022-09-17T11:31:33;99487.88;;;13.57;65.63
74268;BME280;62638;51.362;12.472;2022-09-17T11:34:25;99499.44;;;13.21;67.13
74268;BME280;62638;51.362;12.472;2022-09-17T11:37:16;99499.09;;;12.93;67.70
74268;BME280;62638;51.362;12.472;2022-09-17T11:39:50;99505.03;;;12.80;68.45
74268;BME280;62638;51.362;12.472;2022-09-17T11:42:24;99491.56;;;12.88;68.18
74268;BME280;62638;51.362;12.472;2022-09-17T11:44:59;99485.59;;;13.01;67.65
74268;BME280;62638;51.362;12.472;2022-09-17T11:47:35;99479.81;;;13.12;66.39
74268;BME280;62638;51.362;12.472;2022-09-17T11:52:59;99476.09;;;14.40;63.12
74268;BME280;62638;51.362;12.472;2022-09-17T11:58:33;99467.94;;;15.05;60.04
74268;BME280;62638;51.362;12.472;2022-09-17T12:01:02;99471.66;;;15.04;59.99
74268;BME280;62638;51.362;12.472;2022-09-17T12:04:00;99461.00;;;15.60;57.79
74268;BME280;62638;51.362;12.472;2022-09-17T12:06:37;99457.38;;;16.43;57.91
74268;BME280;62638;51.362;12.472;2022-09-17T12:09:12;99461.72;;;15.75;57.95
74268;BME280;62638;51.362;12.472;2022-09-17T12:14:38;99448.69;;;15.51;60.44
74268;BME280;62638;51.362;12.472;2022-09-17T12:17:11;99446.00;;;16.13;56.91
74268;BME280;62638;51.362;12.472;2022-09-17T12:19:42;99436.34;;;15.97;55.79
74268;BME280;62638;51.362;12.472;2022-09-17T12:22:21;99434.56;;;16.52;56.01
74268;BME280;62638;51.362;12.472;2022-09-17T12:24:52;99428.66;;;16.96;55.06
74268;BME280;62638;51.362;12.472;2022-09-17T12:30:13;99420.19;;;17.25;51.47
74268;BME280;62638;51.362;12.472;2022-09-17T12:33:00;99418.47;;;16.85;50.05
74268;BME280;62638;51.362;12.472;2022-09-17T12:41:19;99415.59;;;17.39;49.45
74268;BME280;62638;51.362;12.472;2022-09-17T12:43:49;99410.84;;;17.21;46.90
74268;BME280;62638;51.362;12.472;2022-09-17T12:51:58;99402.50;;;17.42;47.45
74268;BME280;62638;51.362;12.472;2022-09-17T13:00:14;99393.50;;;17.88;46.25
74268;BME280;62638;51.362;12.472;2022-09-17T13:06:01;99403.84;;;18.17;42.60
74268;BME280;62638;51.362;12.472;2022-09-17T13:08:58;99398.50;;;17.91;41.51
74268;BME280;62638;51.362;12.472;2022-09-17T13:14:34;99393.78;;;17.60;43.66
74268;BME280;62638;51.362;12.472;2022-09-17T13:17:21;99386.88;;;17.38;43.68
74268;BME280;62638;51.362;12.472;2022-09-17T13:22:48;99390.66;;;16.43;47.97
74268;BME280;62638;51.362;12.472;2022-09-17T13:25:21;99407.25;;;14.94;52.23
74268;BME280;62638;51.362;12.472;2022-09-17T13:27:50;99421.81;;;14.28;48.08
74268;BME280;62638;51.362;12.472;2022-09-17T13:33:54;99413.03;;;14.05;55.87
74268;BME280;62638;51.362;12.472;2022-09-17T13:39:10;99415.88;;;14.83;58.73
74268;BME280;62638;51.362;12.472;2022-09-17T13:41:40;99413.41;;;15.31;54.99
74268;BME280;62638;51.362;12.472;2022-09-17T13:44:08;99408.66;;;15.12;57.96
74268;BME280;62638;51.362;12.472;2022-09-17T13:46:35;99411.69;;;14.81;60.09
74268;BME280;62638;51.362;12.472;2022-09-17T13:49:05;99401.84;;;14.52;60.03
74268;BME280;62638;51.362;12.472;2022-09-17T13:54:03;99429.72;;;13.86;63.05
74268;BME280;62638;51.362;12.472;2022-09-17T13:56:38;99423.72;;;13.46;62.94
74268;BME280;62638;51.362;12.472;2022-09-17T13:59:13;99436.63;;;13.13;63.73
74268;BME280;62638;51.362;12.472;2022-09-17T14:01:57;99428.13;;;12.48;61.07
74268;BME280;62638;51.362;12.472;2022-09-17T14:04:34;99424.34;;;12.65;60.50
74268;BME280;62638;51.362;12.472;2022-09-17T14:06:59;99414.97;;;13.15;63.17
74268;BME280;62638;51.362;12.472;2022-09-17T14:09:48;99416.19;;;14.23;58.11
74268;BME280;62638;51.362;12.472;2022-09-17T14:18:46;99383.81;;;15.65;53.85
74268;BME280;62638;51.362;12.472;2022-09-17T14:21:26;99378.66;;;16.11;53.95
74268;BME280;62638;51.362;12.472;2022-09-17T14:23:55;99371.34;;;15.64;56.98
74268;BME280;62638;51.362;12.472;2022-09-17T14:26:45;99379.69;;;15.69;53.06
74268;BME280;62638;51.362;12.472;2022-09-17T14:32:04;99366.25;;;15.82;47.11
74268;BME280;62638;51.362;12.472;2022-09-17T14:34:37;99374.09;;;15.50;47.53
74268;BME280;62638;51.362;12.472;2022-09-17T14:37:13;99376.47;;;15.53;51.52
74268;BME280;62638;51.362;12.472;2022-09-17T14:39:40;99375.41;;;15.05;54.37
74268;BME280;62638;51.362;12.472;2022-09-17T14:42:13;99385.69;;;14.94;55.93
74268;BME280;62638;51.362;12.472;2022-09-17T14:45:50;99395.50;;;14.60;58.18
74268;BME280;62638;51.362;12.472;2022-09-17T14:47:43;99394.28;;;13.97;57.10
74268;BME280;62638;51.362;12.472;2022-09-17T14:50:25;99390.75;;;13.82;58.94
74268;BME280;62638;51.362;12.472;2022-09-17T14:52:52;99396.22;;;13.74;57.81
74268;BME280;62638;51.362;12.472;2022-09-17T14:57:45;99395.41;;;13.88;57.74
74268;BME280;62638;51.362;12.472;2022-09-17T15:00:31;99389.38;;;14.51;55.40
74268;BME280;62638;51.362;12.472;2022-09-17T15:02:57;99379.72;;;14.78;49.91
74268;BME280;62638;51.362;12.472;2022-09-17T15:05:35;99379.25;;;15.17;50.28
74268;BME280;62638;51.362;12.472;2022-09-17T15:08:18;99374.38;;;15.89;46.50
74268;BME280;62638;51.362;12.472;2022-09-17T15:13:22;99381.06;;;15.93;47.39
74268;BME280;62638;51.362;12.472;2022-09-17T15:15:51;99370.47;;;15.92;47.21
74268;BME280;62638;51.362;12.472;2022-09-17T15:18:17;99373.84;;;16.54;46.42
74268;BME280;62638;51.362;12.472;2022-09-17T15:20:45;99371.19;;;16.61;42.01